Accueil
METAR-TAF:

METAR-TAF

Aéroports :

Avignon, France

Aéroport d'Avignon-Provence

latitude: 43-54-26N, longitude: 004-54-07E, altitude: 38 m

Observation

Le bulletin a été fait il y a 39 minutes, à 15:00 UTC
Vent 4 kt de nord/nord-ouest, variant entre ouest et est/nord-est
Température 38°C
Humidité 31%
Pression 1016 hPa
Visibilité 10 km ou plus
pas de nuages en-dessous de 1500 mètres et pas de cumulonimbus.

METAR: LFMV 231500Z AUTO 33004KT 280V070 CAVOK 38/18 Q1016 NOSIG

Heure: 17:39 (15:39 UTC)

Prévision

Le bulletin a été fait il y a 1 heure et 39 minutes, à 14:00 UTC
Prévision valable du 23 à 15 UTC au 24 à 15 UTC
Vent 5 kt de direction variable
Visibilité 10 km ou plus
pas de nuages en-dessous de 1500 mètres et pas de cumulonimbus.
Evoluant progressivement
du 24 à 13 UTC au 24 à 15 UTC
Vent 15 kt de sud-ouest

TAF: LFMV 231400Z 2315/2415 VRB05KT CAVOK BECMG 2413/2415 22015KT

Observations et prévisions météorologiques de plus de 4000 aéroports (messages METAR et TAF).

Les stations disponibles sont représentées par des disques jaunes et rouges sur la carte.

Passer la souris dessus pour voir le nom de la station.

Cliquer dessus pour voir les observations et prévisions météorologiques.

Pour changer de carte: cliquez sur les boutons verts avec une croix noire pour zoomer, sur le bouton vert avec un tiret pour effectuer un zoom arrière, ou sur les flèches vertes pour les cartes adjacentes.


METAR-TAF: